Time;durP1;ratioP1;P1;durP2;ratioP2;P2;SDS_P1;SDS_P2;PMS_P1;PMS_P2;Temp;Humidity;BMP_temperature;BMP_pressure;BME280_temperature;BME280_humidity;BME280_pressure;Samples;Min_cycle;Max_cycle;Signal;HPM_P1;HPM_P2
2023/06/12 00:00:42;;;;;;;5.93;5.43;;;;;;;19.88;79.34;99980.53;4995614;28;20210;-74
2023/06/12 00:03:07;;;;;;;6.37;5.87;;;;;;;19.88;80.50;99976.13;5003129;28;20182;-75
2023/06/12 00:05:32;;;;;;;6.77;6.17;;;;;;;19.80;79.93;99976.47;5001733;28;20334;-76
2023/06/12 00:07:58;;;;;;;6.37;5.87;;;;;;;19.76;79.93;99974.09;5003791;28;20194;-75
2023/06/12 00:10:24;;;;;;;6.40;5.90;;;;;;;19.79;79.11;99980.03;5003407;28;20194;-74
2023/06/12 00:12:50;;;;;;;5.67;5.10;;;;;;;19.74;79.75;99978.59;5000439;28;20197;-75
2023/06/12 00:15:15;;;;;;;5.50;5.10;;;;;;;19.71;79.73;99976.13;4988755;28;20188;-74
2023/06/12 00:17:41;;;;;;;6.00;5.60;;;;;;;19.72;79.98;99980.44;5001370;28;20255;-74
2023/06/12 00:20:07;;;;;;;5.63;5.13;;;;;;;19.67;80.47;99982.44;4997260;28;20220;-75
2023/06/12 00:22:39;;;;;;;6.80;6.30;;;;;;;19.63;81.00;99981.75;4979651;28;20203;-75
2023/06/12 00:25:05;;;;;;;7.03;6.03;;;;;;;19.60;81.07;99982.78;4994751;28;20179;-75
2023/06/12 00:27:31;;;;;;;7.07;6.43;;;;;;;19.55;81.02;99979.53;4977124;28;20332;-74
2023/06/12 00:29:57;;;;;;;6.60;6.10;;;;;;;19.56;80.14;99985.66;4981620;28;21000;-75
2023/06/12 00:32:22;;;;;;;6.70;6.27;;;;;;;19.48;80.55;99986.03;4983697;28;20268;-74
2023/06/12 00:34:48;;;;;;;8.00;6.13;;;;;;;19.52;80.68;99981.47;4996140;28;20678;-75
2023/06/12 00:37:14;;;;;;;6.50;6.00;;;;;;;19.52;79.64;99979.69;4994825;28;20293;-74
2023/06/12 00:39:39;;;;;;;5.90;5.50;;;;;;;19.48;79.36;99980.78;4997878;28;20213;-75
2023/06/12 00:42:05;;;;;;;5.60;5.20;;;;;;;19.44;79.92;99980.06;4998909;28;20538;-75
2023/06/12 00:44:31;;;;;;;6.50;6.00;;;;;;;19.46;81.16;99972.97;4996574;28;20224;-76
2023/06/12 00:46:56;;;;;;;6.70;6.10;;;;;;;19.45;81.48;99980.94;4980930;28;20192;-77
2023/06/12 00:49:22;;;;;;;6.40;5.80;;;;;;;19.53;82.29;99986.63;4994711;28;20232;-76
2023/06/12 00:51:48;;;;;;;6.60;6.10;;;;;;;19.49;82.78;99987.75;4998957;28;20286;-74
2023/06/12 00:54:14;;;;;;;5.93;5.47;;;;;;;19.45;82.58;99987.03;4999835;28;20198;-74
2023/06/12 00:56:39;;;;;;;5.80;5.40;;;;;;;19.44;82.31;99980.06;4996299;28;20178;-75
2023/06/12 00:59:05;;;;;;;6.27;5.87;;;;;;;19.49;78.14;99977.25;5000353;28;20210;-75
2023/06/12 01:01:31;;;;;;;6.27;5.87;;;;;;;19.45;79.52;99971.28;4995703;28;20212;-75
2023/06/12 01:03:57;;;;;;;6.17;5.70;;;;;;;19.48;79.28;99984.25;4999461;28;20194;-75
2023/06/12 01:06:33;;;;;;;5.90;5.40;;;;;;;19.45;79.81;99979.16;4997101;28;20198;-74
2023/06/12 01:09:09;;;;;;;5.70;5.30;;;;;;;19.43;80.93;99980.16;4997903;28;20966;-75
2023/06/12 01:11:36;;;;;;;5.70;5.30;;;;;;;19.32;81.48;99972.84;5000542;28;20176;-75
2023/06/12 01:14:02;;;;;;;6.30;5.90;;;;;;;19.22;81.51;99974.22;4997594;28;20294;-76
2023/06/12 01:16:27;;;;;;;6.07;5.67;;;;;;;19.12;81.84;99969.47;4997321;28;20340;-75
2023/06/12 01:18:52;;;;;;;6.20;5.80;;;;;;;19.02;82.11;99966.44;4980606;28;20227;-76
2023/06/12 01:21:22;;;;;;;5.87;5.43;;;;;;;18.96;81.99;99974.59;4978803;28;20210;-76
2023/06/12 01:24:00;;;;;;;6.70;5.97;;;;;;;18.89;82.19;99970.56;4999387;28;20197;-76
2023/06/12 01:26:52;;;;;;;6.47;5.87;;;;;;;18.84;83.23;99970.75;4997299;28;20185;-75
2023/06/12 01:29:26;;;;;;;6.50;6.00;;;;;;;18.79;83.26;99967.53;4998588;28;20241;-76
2023/06/12 01:32:08;;;;;;;6.63;5.60;;;;;;;18.72;83.20;99971.34;4998927;28;20720;-75
2023/06/12 01:34:53;;;;;;;6.30;5.80;;;;;;;18.66;83.56;99969.88;5001213;28;20665;-74
2023/06/12 01:37:33;;;;;;;6.50;6.00;;;;;;;18.54;82.83;99965.22;4995285;28;20249;-75
2023/06/12 01:40:00;;;;;;;5.87;5.47;;;;;;;18.40;82.89;99968.47;5000277;28;20260;-74
2023/06/12 01:42:28;;;;;;;6.37;5.97;;;;;;;18.27;82.79;99968.22;4999249;28;20208;-74
2023/06/12 01:44:54;;;;;;;6.33;5.83;;;;;;;18.12;83.05;99968.00;5003521;28;20231;-74
2023/06/12 01:47:20;;;;;;;5.90;5.50;;;;;;;18.04;83.80;99972.72;4987637;28;20217;-74
2023/06/12 01:49:46;;;;;;;5.77;5.37;;;;;;;17.96;83.75;99969.59;4984247;28;20581;-74
2023/06/12 01:52:11;;;;;;;6.00;5.50;;;;;;;17.86;84.41;99971.75;5001096;28;20201;-75
2023/06/12 01:54:37;;;;;;;6.10;5.63;;;;;;;17.77;84.49;99970.41;5005146;28;20193;-74
2023/06/12 01:57:03;;;;;;;6.40;5.90;;;;;;;17.68;84.42;99963.78;5001120;28;20201;-73
2023/06/12 01:59:28;;;;;;;5.77;5.37;;;;;;;17.61;84.73;99962.38;5003924;28;20311;-74
2023/06/12 02:01:53;;;;;;;6.03;5.53;;;;;;;17.52;85.13;99963.63;5003098;28;20322;-74
2023/06/12 02:04:19;;;;;;;6.20;5.70;;;;;;;17.44;85.29;99970.09;5005558;28;20184;-74
2023/06/12 02:06:45;;;;;;;6.87;6.37;;;;;;;17.38;85.77;99965.97;5005546;28;20199;-74
2023/06/12 02:09:10;;;;;;;6.80;6.30;;;;;;;17.32;86.12;99972.28;5001189;28;20239;-75
2023/06/12 02:11:35;;;;;;;6.10;5.70;;;;;;;17.29;86.70;99968.97;5004616;28;20194;-74
2023/06/12 02:14:01;;;;;;;7.00;6.47;;;;;;;17.26;86.72;99974.31;5001972;28;20851;-75
2023/06/12 02:16:27;;;;;;;6.50;6.00;;;;;;;17.20;86.95;99970.19;4979804;28;20193;-75
2023/06/12 02:18:53;;;;;;;6.10;5.70;;;;;;;17.15;87.99;99969.56;4983097;28;20278;-75
2023/06/12 02:21:18;;;;;;;5.83;5.43;;;;;;;17.09;87.98;99975.91;4999316;28;20212;-74
2023/06/12 02:23:43;;;;;;;6.90;6.23;;;;;;;17.06;86.57;99979.47;4984921;28;20271;-75
2023/06/12 02:26:09;;;;;;;6.20;5.70;;;;;;;17.01;86.25;99976.22;4997632;28;20196;-75
2023/06/12 02:28:34;;;;;;;6.47;6.00;;;;;;;16.97;87.07;99986.84;5002351;28;20355;-74
2023/06/12 02:31:00;;;;;;;6.83;6.33;;;;;;;16.95;84.86;99989.53;4995078;28;20196;-74
2023/06/12 02:33:25;;;;;;;6.50;6.00;;;;;;;16.97;84.69;99990.31;5003300;28;20637;-74
2023/06/12 02:35:51;;;;;;;6.53;6.03;;;;;;;16.85;85.41;99983.78;5001680;28;20192;-74
2023/06/12 02:38:16;;;;;;;6.43;5.93;;;;;;;16.85;85.16;99991.63;5000522;28;20208;-74
2023/06/12 02:40:41;;;;;;;6.63;6.10;;;;;;;16.99;84.18;99991.09;4999295;28;20661;-75
2023/06/12 02:43:07;;;;;;;6.77;6.27;;;;;;;16.93;84.61;99999.16;4999186;28;20196;-75
2023/06/12 02:45:32;;;;;;;5.93;5.53;;;;;;;16.87;84.99;99991.53;4997049;28;20200;-74
2023/06/12 02:47:57;;;;;;;6.57;6.07;;;;;;;17.03;84.15;99994.44;4997436;28;20184;-75
2023/06/12 02:50:22;;;;;;;6.73;6.23;;;;;;;17.08;83.91;99996.84;4998370;28;20191;-74
2023/06/12 02:52:48;;;;;;;6.63;6.07;;;;;;;17.00;84.17;100005.88;4986675;28;20223;-74
2023/06/12 02:55:14;;;;;;;6.70;6.20;;;;;;;16.97;84.25;100005.13;5000725;28;20308;-74
2023/06/12 02:57:39;;;;;;;6.03;5.63;;;;;;;17.00;84.11;100000.66;4999805;28;20199;-74
2023/06/12 03:00:05;;;;;;;6.50;6.03;;;;;;;17.11;83.43;99997.56;5002901;28;20215;-74
2023/06/12 03:02:30;;;;;;;6.63;6.13;;;;;;;17.09;83.51;100002.03;4997421;28;20716;-71
2023/06/12 03:04:56;;;;;;;6.73;6.23;;;;;;;17.17;83.36;99999.09;4985964;28;20227;-75
2023/06/12 03:07:21;;;;;;;6.63;6.03;;;;;;;17.12;83.09;100009.75;5004178;28;20968;-74
2023/06/12 03:09:47;;;;;;;6.43;5.93;;;;;;;17.10;83.89;100013.34;5004028;28;20220;-74
2023/06/12 03:12:12;;;;;;;7.00;6.50;;;;;;;17.14;84.93;100007.91;4982792;28;20620;-74
2023/06/12 03:14:42;;;;;;;5.37;4.97;;;;;;;17.13;84.94;100014.06;4981819;28;20191;-74
2023/06/12 03:17:07;;;;;;;6.10;5.60;;;;;;;17.17;85.20;100015.63;5004470;28;20199;-74
2023/06/12 03:19:32;;;;;;;6.17;5.67;;;;;;;17.21;85.29;100019.84;5003625;28;20204;-74
2023/06/12 03:21:58;;;;;;;5.40;5.00;;;;;;;17.24;85.71;100026.69;4982189;28;20227;-74
2023/06/12 03:24:26;;;;;;;6.07;5.57;;;;;;;17.26;86.57;100024.00;4985117;28;20188;-74
2023/06/12 03:26:52;;;;;;;5.90;5.40;;;;;;;17.25;86.46;100031.03;5000116;28;20213;-74
2023/06/12 03:29:17;;;;;;;5.90;5.50;;;;;;;17.23;86.77;100024.16;4998487;28;20294;-75
2023/06/12 03:31:44;;;;;;;5.80;5.40;;;;;;;17.20;86.46;100033.81;4982472;28;20247;-74
2023/06/12 03:34:10;;;;;;;6.00;5.60;;;;;;;17.15;86.01;100034.94;4997629;28;20529;-75
2023/06/12 03:36:37;;;;;;;6.60;6.10;;;;;;;17.12;86.00;100033.28;5001255;28;20194;-73
2023/06/12 03:39:07;;;;;;;6.30;5.80;;;;;;;17.12;86.51;100033.28;4999598;28;20226;-74
2023/06/12 03:41:32;;;;;;;5.67;5.27;;;;;;;17.11;86.68;100039.41;5000985;28;20302;-74
2023/06/12 03:43:58;;;;;;;6.50;6.00;;;;;;;17.11;86.75;100041.19;4994822;28;20275;-74
2023/06/12 03:46:23;;;;;;;6.30;5.80;;;;;;;17.12;86.66;100038.50;4982759;28;20218;-75
2023/06/12 03:48:49;;;;;;;6.30;5.80;;;;;;;17.15;87.41;100058.47;4998665;28;20217;-73
2023/06/12 03:51:14;;;;;;;7.07;6.20;;;;;;;17.19;86.95;100053.03;5000611;28;20185;-73
2023/06/12 03:53:40;;;;;;;6.07;5.67;;;;;;;17.26;85.83;100058.00;4984295;28;20189;-75
2023/06/12 03:56:05;;;;;;;6.27;5.77;;;;;;;17.51;85.27;100057.84;5000024;28;20184;-74
2023/06/12 03:58:31;;;;;;;6.07;5.67;;;;;;;17.82;84.56;100072.28;4996026;28;20228;-75
2023/06/12 04:00:56;;;;;;;6.43;5.93;;;;;;;18.11;84.47;100072.81;5002721;28;20207;-74
2023/06/12 04:03:24;;;;;;;6.07;5.20;;;;;;;18.29;83.71;100071.16;5002181;28;20710;-75
2023/06/12 04:05:50;;;;;;;5.70;5.30;;;;;;;18.33;83.67;100070.09;4999785;28;20600;-74
2023/06/12 04:08:15;;;;;;;6.30;5.80;;;;;;;18.32;83.48;100070.16;5001953;28;20258;-75
2023/06/12 04:10:41;;;;;;;6.03;5.63;;;;;;;18.29;83.89;100073.78;5000261;28;20202;-74
2023/06/12 04:13:07;;;;;;;6.07;5.57;;;;;;;18.23;83.31;100080.13;4996512;28;20199;-74
2023/06/12 04:15:32;;;;;;;5.70;5.30;;;;;;;18.22;83.22;100069.72;4982799;28;20238;-74
2023/06/12 04:17:58;;;;;;;6.00;5.60;;;;;;;18.26;83.98;100082.59;5000701;28;20192;-74
2023/06/12 04:20:26;;;;;;;6.13;5.63;;;;;;;18.49;84.67;100079.88;5001969;28;20192;-74
2023/06/12 04:22:51;;;;;;;5.60;5.20;;;;;;;18.78;83.76;100086.41;4982628;28;20225;-75
2023/06/12 04:25:16;;;;;;;5.93;5.47;;;;;;;18.88;83.58;100079.81;4997857;28;20198;-74
2023/06/12 04:27:42;;;;;;;5.57;5.07;;;;;;;18.92;81.77;100074.44;4982603;28;20199;-74
2023/06/12 04:30:09;;;;;;;6.23;5.73;;;;;;;18.87;80.42;100072.88;4996250;28;20312;-74
2023/06/12 04:32:34;;;;;;;6.30;5.70;;;;;;;18.78;78.97;100080.31;4998583;28;20240;-74
2023/06/12 04:35:01;;;;;;;6.17;5.57;;;;;;;18.77;79.40;100084.72;4999934;28;20210;-73
2023/06/12 04:37:27;;;;;;;6.80;6.17;;;;;;;18.80;79.09;100078.47;4982433;28;20205;-74
2023/06/12 04:39:52;;;;;;;8.23;6.17;;;;;;;18.98;79.08;100077.63;4991754;28;20235;-75
2023/06/12 04:42:18;;;;;;;6.73;5.83;;;;;;;19.77;77.93;100092.16;4993638;28;20694;-74
2023/06/12 04:44:46;;;;;;;6.00;5.50;;;;;;;20.44;76.12;100080.03;4994599;28;20676;-74
2023/06/12 04:47:12;;;;;;;6.00;5.37;;;;;;;21.38;75.02;100081.94;4998088;28;21018;-76
2023/06/12 04:49:41;;;;;;;7.30;5.60;;;;;;;22.03;71.87;100086.03;4992875;28;20211;-75
2023/06/12 04:52:07;;;;;;;6.53;6.00;;;;;;;22.02;69.71;100079.06;4996083;28;20689;-76
2023/06/12 04:54:35;;;;;;;5.70;5.20;;;;;;;22.43;69.95;100070.47;4980124;28;20192;-74
2023/06/12 04:57:07;;;;;;;6.20;5.60;;;;;;;22.88;67.61;100065.00;5002935;28;20302;-75
2023/06/12 04:59:37;;;;;;;7.20;6.50;;;;;;;22.38;69.13;100072.50;4981842;28;20538;-75
2023/06/12 05:02:03;;;;;;;7.53;5.60;;;;;;;22.45;69.09;100067.72;4998311;28;20204;-74
2023/06/12 05:04:28;;;;;;;5.67;5.17;;;;;;;23.01;67.98;100058.94;4996412;28;20192;-75
2023/06/12 05:06:55;;;;;;;9.70;6.00;;;;;;;22.43;68.62;100059.06;4998775;28;20200;-74
2023/06/12 05:09:21;;;;;;;6.17;5.67;;;;;;;22.98;68.20;100057.34;4996548;28;20208;-74
2023/06/12 05:11:46;;;;;;;6.30;5.80;;;;;;;23.18;67.43;100063.97;4992249;28;20180;-75
2023/06/12 05:14:11;;;;;;;8.37;5.40;;;;;;;23.91;66.46;100072.38;5002842;28;20641;-76
2023/06/12 05:16:37;;;;;;;6.30;5.80;;;;;;;24.61;64.99;100071.06;5000595;28;20190;-74
2023/06/12 05:19:02;;;;;;;6.00;5.40;;;;;;;23.63;66.27;100068.97;4993589;28;20292;-75
2023/06/12 05:21:27;;;;;;;6.33;5.67;;;;;;;23.34;66.34;100069.13;4997226;28;20633;-74
2023/06/12 05:23:53;;;;;;;5.73;5.23;;;;;;;23.57;66.66;100069.38;4995845;28;20661;-75
2023/06/12 05:26:18;;;;;;;5.47;4.93;;;;;;;23.95;65.77;100075.66;4994418;28;20219;-75
2023/06/12 05:28:44;;;;;;;5.63;5.17;;;;;;;24.80;64.44;100067.97;5000321;28;20310;-75
2023/06/12 05:31:09;;;;;;;6.20;5.57;;;;;;;23.63;66.82;100079.53;4999891;28;20184;-74
2023/06/12 05:33:35;;;;;;;5.60;5.20;;;;;;;24.57;65.70;100072.25;4996372;28;20203;-75
2023/06/12 05:36:00;;;;;;;5.20;4.80;;;;;;;24.47;65.07;100079.13;4996708;28;20189;-74
2023/06/12 05:38:25;;;;;;;5.90;5.37;;;;;;;24.39;64.72;100079.66;4995755;28;20599;-75
2023/06/12 05:40:51;;;;;;;5.90;5.40;;;;;;;24.92;64.58;100086.56;4995184;28;20220;-76
2023/06/12 05:43:17;;;;;;;6.23;5.00;;;;;;;24.55;65.25;100083.88;4992474;28;20744;-74
2023/06/12 05:45:42;;;;;;;6.10;5.50;;;;;;;24.00;65.07;100084.97;4998061;28;20219;-76
2023/06/12 05:48:07;;;;;;;5.43;4.93;;;;;;;23.60;67.36;100085.03;4995202;28;20976;-77
2023/06/12 05:50:33;;;;;;;5.90;5.20;;;;;;;24.39;65.85;100077.03;4997974;28;20188;-75
2023/06/12 05:52:58;;;;;;;6.03;5.43;;;;;;;24.16;66.01;100083.94;4976389;28;20185;-77
2023/06/12 05:55:23;;;;;;;6.50;5.27;;;;;;;24.30;66.11;100085.63;4992155;28;20197;-75
2023/06/12 05:57:49;;;;;;;9.83;6.13;;;;;;;24.59;65.47;100080.91;4981158;28;20266;-75
2023/06/12 06:00:15;;;;;;;8.17;6.20;;;;;;;23.95;66.14;100088.88;4998325;28;20193;-76
2023/06/12 06:02:42;;;;;;;7.90;5.60;;;;;;;24.47;64.90;100095.00;4982255;28;20217;-75
2023/06/12 06:05:09;;;;;;;7.10;5.20;;;;;;;24.14;66.33;100083.19;4999511;28;20184;-76
2023/06/12 06:07:36;;;;;;;8.27;5.60;;;;;;;24.08;66.57;100088.91;4999271;28;20196;-75
2023/06/12 06:10:02;;;;;;;8.43;4.87;;;;;;;23.38;67.03;100086.44;5002275;28;20234;-76
2023/06/12 06:12:27;;;;;;;8.83;5.90;;;;;;;24.30;65.14;100080.34;5003225;28;20188;-75
2023/06/12 06:14:52;;;;;;;6.07;5.57;;;;;;;25.04;64.56;100085.66;4999595;28;20312;-76
2023/06/12 06:17:19;;;;;;;7.27;4.90;;;;;;;25.04;64.79;100084.81;5002387;28;20208;-75
2023/06/12 06:19:44;;;;;;;7.97;5.32;;;;;;;25.27;64.76;100085.75;5004923;28;20294;-76
2023/06/12 06:22:10;;;;;;;5.88;5.13;;;;;;;24.51;64.86;100081.44;5004961;28;20209;-75
2023/06/12 06:24:35;;;;;;;5.73;5.30;;;;;;;24.25;65.54;100091.22;5004095;28;20211;-75
2023/06/12 06:27:02;;;;;;;5.43;5.00;;;;;;;24.05;65.50;100093.44;4999833;28;20196;-75
2023/06/12 06:29:27;;;;;;;5.37;4.83;;;;;;;24.32;64.86;100096.94;5006606;28;20244;-77
2023/06/12 06:31:52;;;;;;;5.30;4.90;;;;;;;24.13;66.01;100100.00;5002405;28;20235;-79
2023/06/12 06:34:18;;;;;;;5.87;5.30;;;;;;;24.05;65.84;100100.53;5000768;28;20196;-75
2023/06/12 06:36:44;;;;;;;7.10;5.20;;;;;;;24.72;65.24;100103.88;4985377;28;20187;-75
2023/06/12 06:39:09;;;;;;;6.87;5.23;;;;;;;24.95;64.79;100097.78;5002726;28;20311;-75
2023/06/12 06:41:35;;;;;;;6.00;5.27;;;;;;;24.81;65.14;100093.47;5000327;28;20211;-76
2023/06/12 06:44:00;;;;;;;5.57;5.05;;;;;;;24.34;65.69;100108.25;5001361;28;20188;-76
2023/06/12 06:46:25;;;;;;;5.47;4.95;;;;;;;24.86;64.87;100108.19;5005967;28;20192;-76
2023/06/12 06:48:51;;;;;;;5.40;4.90;;;;;;;24.83;65.36;100108.38;5003818;28;20216;-76
2023/06/12 06:51:16;;;;;;;5.50;5.10;;;;;;;25.29;64.47;100106.84;4985304;28;20196;-75
2023/06/12 06:53:41;;;;;;;5.63;5.07;;;;;;;24.44;65.95;100101.38;5004106;28;20708;-77
2023/06/12 06:56:07;;;;;;;5.80;5.30;;;;;;;24.11;67.08;100101.91;4982530;28;20189;-75
2023/06/12 06:58:32;;;;;;;5.68;5.18;;;;;;;24.15;66.70;100106.03;5005852;28;20270;-76
2023/06/12 07:00:57;;;;;;;5.80;5.30;;;;;;;25.07;65.41;100116.34;5004267;28;20953;-75
2023/06/12 07:03:23;;;;;;;5.43;4.93;;;;;;;24.79;66.06;100106.00;4975421;28;20192;-76
2023/06/12 07:05:49;;;;;;;6.07;5.37;;;;;;;24.83;65.58;100097.81;4991144;28;20228;-76
2023/06/12 07:08:14;;;;;;;8.20;5.70;;;;;;;24.13;67.31;100097.34;4995818;28;20873;-76
2023/06/12 07:10:39;;;;;;;5.80;5.30;;;;;;;23.69;68.38;100092.31;5002513;28;20286;-74
2023/06/12 07:13:05;;;;;;;5.97;5.47;;;;;;;24.12;67.83;100093.03;5001175;28;20551;-76
2023/06/12 07:15:30;;;;;;;17.53;5.97;;;;;;;24.14;67.65;100084.03;5000698;28;20796;-75
2023/06/12 07:17:55;;;;;;;8.70;5.93;;;;;;;24.23;68.46;100094.91;4985173;28;20629;-75
2023/06/12 07:20:21;;;;;;;5.90;5.40;;;;;;;24.26;67.22;100092.94;4979590;28;20265;-77
2023/06/12 07:22:46;;;;;;;9.00;6.03;;;;;;;24.42;67.64;100095.31;5001282;28;20625;-75
2023/06/12 07:25:11;;;;;;;6.27;5.43;;;;;;;24.38;67.80;100090.38;4998115;28;20180;-76
2023/06/12 07:27:37;;;;;;;7.13;5.57;;;;;;;24.98;66.67;100093.22;4997870;28;20621;-76
2023/06/12 07:30:04;;;;;;;5.97;5.37;;;;;;;24.71;66.63;100089.78;4999698;28;20243;-76
2023/06/12 07:32:29;;;;;;;6.20;5.07;;;;;;;24.90;66.65;100081.38;4985575;28;20187;-75
2023/06/12 07:34:55;;;;;;;5.47;4.97;;;;;;;25.27;65.33;100089.28;4985634;28;20188;-75
2023/06/12 07:37:22;;;;;;;6.13;5.53;;;;;;;25.11;66.13;100083.41;4999755;28;20196;-75
2023/06/12 07:39:47;;;;;;;6.47;5.27;;;;;;;26.04;64.78;100084.44;5003106;28;20216;-76
2023/06/12 07:42:13;;;;;;;6.68;5.53;;;;;;;25.74;65.00;100083.19;5004446;28;20289;-76
2023/06/12 07:44:40;;;;;;;5.75;5.20;;;;;;;25.82;64.31;100079.97;4998242;28;20223;-75
2023/06/12 07:47:06;;;;;;;8.88;5.28;;;;;;;26.13;64.34;100078.44;4996277;28;20234;-77
2023/06/12 07:49:32;;;;;;;6.30;5.70;;;;;;;25.86;63.77;100090.22;4992270;28;20216;-76
2023/06/12 07:51:57;;;;;;;5.68;5.28;;;;;;;25.44;65.84;100076.59;4975438;28;20199;-76
2023/06/12 07:54:23;;;;;;;7.28;5.38;;;;;;;25.64;65.45;100076.91;4998182;28;20235;-76
2023/06/12 07:56:50;;;;;;;7.00;6.30;;;;;;;25.69;65.47;100080.03;4992966;28;20188;-75
2023/06/12 07:59:16;;;;;;;5.75;5.15;;;;;;;25.82;64.67;100067.53;4990845;28;20217;-75
2023/06/12 08:01:41;;;;;;;8.13;5.45;;;;;;;25.23;65.05;100079.03;4991491;28;20278;-76
2023/06/12 08:04:11;;;;;;;6.07;5.57;;;;;;;25.00;65.05;100070.13;4994258;28;20899;-75
2023/06/12 08:06:38;;;;;;;5.37;4.97;;;;;;;25.58;64.17;100074.72;5004306;28;20310;-76
2023/06/12 08:09:03;;;;;;;5.97;5.37;;;;;;;25.37;64.99;100077.97;5000906;28;20216;-75
2023/06/12 08:11:29;;;;;;;12.25;5.65;;;;;;;25.85;63.83;100079.72;4996533;28;20191;-77
2023/06/12 08:13:55;;;;;;;5.80;5.30;;;;;;;25.62;63.74;100081.47;5000486;28;20668;-76
2023/06/12 08:16:23;;;;;;;6.38;5.57;;;;;;;25.65;64.12;100081.22;5000171;28;20188;-76
2023/06/12 08:18:48;;;;;;;5.90;5.30;;;;;;;25.71;63.75;100078.13;4999008;28;20228;-75
2023/06/12 08:21:13;;;;;;;6.70;5.77;;;;;;;25.94;63.68;100075.53;4995554;28;20290;-74
2023/06/12 08:23:40;;;;;;;6.53;5.57;;;;;;;26.23;63.22;100075.09;4979882;28;21184;-75
2023/06/12 08:26:05;;;;;;;6.35;5.80;;;;;;;26.35;60.84;100083.88;4990755;28;20204;-76
2023/06/12 08:28:34;;;;;;;4.82;4.45;;;;;;;26.80;60.93;100061.78;4997843;28;20254;-74
2023/06/12 08:31:01;;;;;;;5.00;4.60;;;;;;;27.41;60.08;100055.88;4999134;28;20657;-75
2023/06/12 08:33:27;;;;;;;5.25;4.85;;;;;;;26.60;60.46;100061.53;4978738;28;20230;-76
2023/06/12 08:35:53;;;;;;;5.35;4.95;;;;;;;26.37;61.10;100066.03;4981415;28;20569;-76
2023/06/12 08:38:18;;;;;;;5.78;5.03;;;;;;;26.02;61.53;100065.16;4982898;28;20200;-75
2023/06/12 08:40:46;;;;;;;5.93;5.47;;;;;;;25.71;61.79;100064.88;4996704;28;20560;-75
2023/06/12 08:43:11;;;;;;;5.93;5.33;;;;;;;25.44;61.16;100073.97;4976055;28;20185;-76
2023/06/12 08:45:41;;;;;;;5.83;5.30;;;;;;;25.65;62.19;100062.69;4988270;28;21312;-76
2023/06/12 08:48:07;;;;;;;5.43;5.03;;;;;;;25.74;63.16;100067.28;4997414;28;20211;-75
2023/06/12 08:50:34;;;;;;;6.03;5.40;;;;;;;25.71;61.99;100081.59;4997067;28;20276;-76
2023/06/12 08:53:00;;;;;;;6.23;5.30;;;;;;;26.03;62.22;100070.34;4998046;28;20563;-73
2023/06/12 08:55:27;;;;;;;5.60;5.10;;;;;;;25.68;61.17;100067.75;5003751;28;20238;-76
2023/06/12 08:57:53;;;;;;;6.23;5.60;;;;;;;25.46;63.07;100076.47;5003670;28;20291;-76
2023/06/12 09:00:19;;;;;;;6.43;5.83;;;;;;;25.79;62.72;100061.63;5003266;28;20267;-75
2023/06/12 09:02:51;;;;;;;8.53;6.13;;;;;;;25.50;61.38;100068.19;4998903;28;20560;-75
2023/06/12 09:05:20;;;;;;;8.47;5.80;;;;;;;25.42;62.77;100059.97;4998627;28;20184;-75
2023/06/12 09:07:46;;;;;;;6.37;5.77;;;;;;;25.52;62.17;100062.78;5002650;28;20669;-75
2023/06/12 09:10:12;;;;;;;6.80;5.60;;;;;;;25.31;62.86;100054.63;4999469;28;20296;-76
2023/06/12 09:12:42;;;;;;;6.47;5.77;;;;;;;25.35;60.82;100064.00;4997453;28;20295;-75
2023/06/12 09:15:07;;;;;;;7.27;6.00;;;;;;;25.25;61.58;100058.56;4997282;28;20188;-75
2023/06/12 09:17:36;;;;;;;7.73;5.90;;;;;;;25.24;62.77;100063.00;4994796;28;20271;-75
2023/06/12 09:20:02;;;;;;;6.00;5.50;;;;;;;25.26;62.38;100055.81;4984144;28;20211;-76
2023/06/12 09:22:27;;;;;;;6.63;5.87;;;;;;;25.55;60.58;100051.97;4996066;28;20693;-75
2023/06/12 09:24:56;;;;;;;6.00;5.50;;;;;;;25.69;58.76;100075.59;4994848;28;20188;-76
2023/06/12 09:27:21;;;;;;;6.80;6.10;;;;;;;25.50;59.00;100054.09;4994137;28;20184;-75
2023/06/12 09:29:47;;;;;;;5.60;5.10;;;;;;;25.58;59.62;100053.53;4980507;28;20219;-76
2023/06/12 09:32:14;;;;;;;5.73;5.27;;;;;;;25.57;59.59;100071.22;4995451;28;20200;-76
2023/06/12 09:34:44;;;;;;;7.13;5.33;;;;;;;25.46;59.88;100053.50;4985135;28;20222;-75
2023/06/12 09:37:12;;;;;;;6.00;5.40;;;;;;;25.45;58.81;100053.59;4983192;28;20568;-76
2023/06/12 09:39:38;;;;;;;5.73;5.23;;;;;;;25.59;57.26;100041.97;5001748;28;20208;-76
2023/06/12 09:42:03;;;;;;;5.70;5.20;;;;;;;25.74;57.41;100058.47;4998812;28;20692;-75
2023/06/12 09:44:30;;;;;;;7.07;5.13;;;;;;;25.97;55.71;100052.28;4999563;28;20181;-76
2023/06/12 09:47:03;;;;;;;34.00;7.40;;;;;;;26.10;55.51;100059.25;5002468;28;20211;-76
2023/06/12 09:49:29;;;;;;;5.63;5.13;;;;;;;26.12;55.70;100052.06;4998722;28;20208;-76
2023/06/12 09:51:54;;;;;;;5.27;4.73;;;;;;;26.16;55.68;100051.69;5003427;28;20184;-76
2023/06/12 09:54:21;;;;;;;5.60;4.87;;;;;;;26.52;55.36;100040.09;4986227;28;20216;-76
2023/06/12 09:56:48;;;;;;;4.87;4.47;;;;;;;26.32;54.81;100047.84;5004765;28;20192;-77
2023/06/12 09:59:18;;;;;;;7.07;5.23;;;;;;;26.32;55.30;100039.88;5004645;28;20292;-76
2023/06/12 10:01:51;;;;;;;8.67;5.50;;;;;;;26.35;54.72;100031.69;5000860;28;20348;-77
2023/06/12 10:04:28;;;;;;;8.17;5.30;;;;;;;26.22;54.33;100057.50;5003736;28;20926;-76
2023/06/12 10:07:00;;;;;;;7.07;5.70;;;;;;;26.29;55.37;100034.81;5000597;28;20206;-76
2023/06/12 10:09:27;;;;;;;5.90;5.13;;;;;;;26.27;55.63;100039.38;5005933;28;20337;-76
2023/06/12 10:11:52;;;;;;;8.17;5.40;;;;;;;26.40;55.72;100029.47;5003826;28;20184;-77
2023/06/12 10:14:19;;;;;;;6.60;6.07;;;;;;;25.82;56.15;100033.06;5005751;28;20184;-75
2023/06/12 10:16:46;;;;;;;6.03;5.40;;;;;;;26.31;56.66;100035.53;5004312;28;20195;-75
2023/06/12 10:19:12;;;;;;;6.80;5.30;;;;;;;26.22;55.59;100046.88;5004221;28;20242;-76
2023/06/12 10:21:39;;;;;;;5.73;5.23;;;;;;;26.17;55.19;100026.00;5003460;28;20643;-76
2023/06/12 10:24:05;;;;;;;6.23;5.60;;;;;;;26.44;56.47;100036.25;4983465;28;20184;-76
2023/06/12 10:26:30;;;;;;;7.00;5.60;;;;;;;26.26;55.75;100030.59;5004012;28;20242;-76
2023/06/12 10:28:56;;;;;;;6.40;5.77;;;;;;;26.15;56.70;100020.84;5005212;28;20223;-77
2023/06/12 10:31:22;;;;;;;5.73;5.23;;;;;;;26.25;56.63;100025.41;5004372;28;20184;-77
2023/06/12 10:34:10;;;;;;;6.30;5.47;;;;;;;26.41;56.77;100009.94;4985273;28;20223;-76
2023/06/12 10:36:41;;;;;;;6.77;6.07;;;;;;;26.39;56.37;100017.22;5001689;28;20188;-76
2023/06/12 10:39:17;;;;;;;6.90;5.73;;;;;;;26.49;56.96;100001.38;4993188;28;20271;-76
2023/06/12 10:42:04;;;;;;;6.43;5.10;;;;;;;26.33;56.53;100005.25;4984312;28;20215;-76
2023/06/12 10:44:37;;;;;;;6.67;6.07;;;;;;;26.35;56.43;100015.75;4984937;28;20207;-76
2023/06/12 10:47:03;;;;;;;5.77;5.27;;;;;;;26.26;56.36;100011.19;4998380;28;20220;-77
2023/06/12 10:49:29;;;;;;;6.10;5.40;;;;;;;26.55;56.49;100002.69;5002118;28;20311;-75
2023/06/12 10:51:58;;;;;;;5.63;5.23;;;;;;;26.40;56.80;100002.13;5005139;28;20642;-77
2023/06/12 10:54:26;;;;;;;5.87;5.30;;;;;;;26.53;56.33;100000.16;5004351;28;20914;-76
2023/06/12 10:56:58;;;;;;;7.10;6.00;;;;;;;26.31;55.62;99998.41;4996370;28;20339;-77
2023/06/12 10:59:35;;;;;;;6.50;6.00;;;;;;;26.46;56.02;100004.28;5002122;28;20208;-77
2023/06/12 11:02:02;;;;;;;6.60;5.53;;;;;;;26.62;56.99;100011.84;5000357;28;20239;-78
2023/06/12 11:04:27;;;;;;;5.53;5.13;;;;;;;26.35;56.10;99985.72;5003095;28;20192;-76
2023/06/12 11:06:53;;;;;;;6.27;5.77;;;;;;;26.57;57.12;99984.81;5001865;28;20197;-77
2023/06/12 11:09:18;;;;;;;6.23;5.37;;;;;;;26.56;57.09;99986.66;5000584;28;20208;-76
2023/06/12 11:11:50;;;;;;;6.50;5.80;;;;;;;26.60;54.99;99981.94;4999115;28;20247;-77
2023/06/12 11:14:16;;;;;;;6.20;5.70;;;;;;;26.99;55.59;99979.66;4999456;28;20189;-76
2023/06/12 11:16:42;;;;;;;5.83;5.37;;;;;;;27.32;55.71;99974.28;4985451;28;20234;-76
2023/06/12 11:19:07;;;;;;;9.30;5.67;;;;;;;26.71;54.90;99995.16;4984238;28;20220;-76
2023/06/12 11:21:37;;;;;;;5.67;5.17;;;;;;;26.45;54.15;99978.72;5001683;28;20258;-76
2023/06/12 11:24:08;;;;;;;9.00;5.37;;;;;;;26.68;53.90;99976.84;5002561;28;20424;-76